sensor_id;sensor_type;location;lat;lon;timestamp;P1;durP1;ratioP1;P2;durP2;ratioP2
13244;SDS011;6689;53.400;12.486;2022-09-09T00:00:59;19.25;;;16.42;;
13244;SDS011;6689;53.400;12.486;2022-09-09T00:03:31;21.50;;;17.00;;
13244;SDS011;6689;53.400;12.486;2022-09-09T00:06:08;20.95;;;17.10;;
13244;SDS011;6689;53.400;12.486;2022-09-09T00:08:45;20.42;;;16.83;;
13244;SDS011;6689;53.400;12.486;2022-09-09T00:11:26;24.00;;;18.48;;
13244;SDS011;6689;53.400;12.486;2022-09-09T00:14:02;24.17;;;18.42;;
13244;SDS011;6689;53.400;12.486;2022-09-09T00:16:36;21.30;;;18.25;;
13244;SDS011;6689;53.400;12.486;2022-09-09T00:19:12;23.73;;;19.30;;
13244;SDS011;6689;53.400;12.486;2022-09-09T00:21:53;26.65;;;20.13;;
13244;SDS011;6689;53.400;12.486;2022-09-09T00:24:32;24.67;;;20.23;;
13244;SDS011;6689;53.400;12.486;2022-09-09T00:27:08;25.88;;;20.15;;
13244;SDS011;6689;53.400;12.486;2022-09-09T00:29:47;25.40;;;19.25;;
13244;SDS011;6689;53.400;12.486;2022-09-09T00:32:20;26.50;;;20.63;;
13244;SDS011;6689;53.400;12.486;2022-09-09T00:34:51;29.25;;;21.55;;
13244;SDS011;6689;53.400;12.486;2022-09-09T00:37:25;27.35;;;21.38;;
13244;SDS011;6689;53.400;12.486;2022-09-09T00:39:57;33.03;;;21.95;;
13244;SDS011;6689;53.400;12.486;2022-09-09T00:42:34;34.08;;;21.80;;
13244;SDS011;6689;53.400;12.486;2022-09-09T00:45:12;30.05;;;20.63;;
13244;SDS011;6689;53.400;12.486;2022-09-09T00:47:55;35.63;;;21.90;;
13244;SDS011;6689;53.400;12.486;2022-09-09T00:50:31;32.63;;;22.55;;
13244;SDS011;6689;53.400;12.486;2022-09-09T00:53:14;38.92;;;23.67;;
13244;SDS011;6689;53.400;12.486;2022-09-09T00:56:00;37.88;;;23.38;;
13244;SDS011;6689;53.400;12.486;2022-09-09T00:58:49;38.88;;;23.42;;
13244;SDS011;6689;53.400;12.486;2022-09-09T01:01:26;38.15;;;23.17;;
13244;SDS011;6689;53.400;12.486;2022-09-09T01:03:56;37.63;;;24.70;;
13244;SDS011;6689;53.400;12.486;2022-09-09T01:06:26;34.45;;;23.60;;
13244;SDS011;6689;53.400;12.486;2022-09-09T01:09:10;45.33;;;24.70;;
13244;SDS011;6689;53.400;12.486;2022-09-09T01:11:45;36.17;;;24.13;;
13244;SDS011;6689;53.400;12.486;2022-09-09T01:14:29;45.55;;;26.98;;
13244;SDS011;6689;53.400;12.486;2022-09-09T01:17:03;48.13;;;26.25;;
13244;SDS011;6689;53.400;12.486;2022-09-09T01:19:38;45.05;;;26.77;;
13244;SDS011;6689;53.400;12.486;2022-09-09T01:22:20;48.63;;;27.10;;
13244;SDS011;6689;53.400;12.486;2022-09-09T01:27:50;52.42;;;29.83;;
13244;SDS011;6689;53.400;12.486;2022-09-09T01:30:22;51.08;;;29.23;;
13244;SDS011;6689;53.400;12.486;2022-09-09T01:33:00;47.60;;;28.80;;
13244;SDS011;6689;53.400;12.486;2022-09-09T01:35:37;42.35;;;27.73;;
13244;SDS011;6689;53.400;12.486;2022-09-09T01:38:10;49.80;;;29.77;;
13244;SDS011;6689;53.400;12.486;2022-09-09T01:40:38;57.33;;;31.80;;
13244;SDS011;6689;53.400;12.486;2022-09-09T01:43:08;51.85;;;29.33;;
13244;SDS011;6689;53.400;12.486;2022-09-09T01:45:37;48.88;;;30.25;;
13244;SDS011;6689;53.400;12.486;2022-09-09T01:48:22;49.28;;;29.73;;
13244;SDS011;6689;53.400;12.486;2022-09-09T01:50:56;47.00;;;29.20;;
13244;SDS011;6689;53.400;12.486;2022-09-09T01:53:25;47.88;;;29.35;;
13244;SDS011;6689;53.400;12.486;2022-09-09T01:55:56;52.47;;;30.45;;
13244;SDS011;6689;53.400;12.486;2022-09-09T01:58:37;46.78;;;30.00;;
13244;SDS011;6689;53.400;12.486;2022-09-09T02:01:20;57.45;;;33.78;;
13244;SDS011;6689;53.400;12.486;2022-09-09T02:03:59;57.53;;;31.58;;
13244;SDS011;6689;53.400;12.486;2022-09-09T02:06:33;55.83;;;31.73;;
13244;SDS011;6689;53.400;12.486;2022-09-09T02:09:04;55.50;;;29.98;;
13244;SDS011;6689;53.400;12.486;2022-09-09T02:11:34;61.53;;;33.60;;
13244;SDS011;6689;53.400;12.486;2022-09-09T02:14:08;61.95;;;31.13;;
13244;SDS011;6689;53.400;12.486;2022-09-09T02:16:41;54.60;;;31.10;;
13244;SDS011;6689;53.400;12.486;2022-09-09T02:19:16;59.78;;;31.05;;
13244;SDS011;6689;53.400;12.486;2022-09-09T02:24:20;65.13;;;30.45;;
13244;SDS011;6689;53.400;12.486;2022-09-09T02:26:49;68.20;;;30.02;;
13244;SDS011;6689;53.400;12.486;2022-09-09T02:29:23;52.25;;;27.10;;
13244;SDS011;6689;53.400;12.486;2022-09-09T02:31:56;49.95;;;27.73;;
13244;SDS011;6689;53.400;12.486;2022-09-09T02:34:28;67.68;;;29.42;;
13244;SDS011;6689;53.400;12.486;2022-09-09T02:36:58;64.90;;;29.90;;
13244;SDS011;6689;53.400;12.486;2022-09-09T02:39:28;63.40;;;29.83;;
13244;SDS011;6689;53.400;12.486;2022-09-09T02:41:57;58.63;;;27.58;;
13244;SDS011;6689;53.400;12.486;2022-09-09T02:44:30;64.68;;;28.25;;
13244;SDS011;6689;53.400;12.486;2022-09-09T02:47:03;65.28;;;28.52;;
13244;SDS011;6689;53.400;12.486;2022-09-09T02:50:01;64.50;;;28.08;;
13244;SDS011;6689;53.400;12.486;2022-09-09T02:52:42;53.58;;;25.88;;
13244;SDS011;6689;53.400;12.486;2022-09-09T02:55:23;62.28;;;27.13;;
13244;SDS011;6689;53.400;12.486;2022-09-09T02:58:03;62.08;;;27.08;;
13244;SDS011;6689;53.400;12.486;2022-09-09T03:00:38;54.95;;;24.92;;
13244;SDS011;6689;53.400;12.486;2022-09-09T03:03:07;49.85;;;25.73;;
13244;SDS011;6689;53.400;12.486;2022-09-09T03:05:38;60.70;;;25.90;;
13244;SDS011;6689;53.400;12.486;2022-09-09T03:08:07;59.97;;;25.25;;
13244;SDS011;6689;53.400;12.486;2022-09-09T03:10:35;55.42;;;24.88;;
13244;SDS011;6689;53.400;12.486;2022-09-09T03:13:03;57.38;;;25.20;;
13244;SDS011;6689;53.400;12.486;2022-09-09T03:15:33;48.00;;;24.52;;
13244;SDS011;6689;53.400;12.486;2022-09-09T03:18:06;52.92;;;26.10;;
13244;SDS011;6689;53.400;12.486;2022-09-09T03:20:34;56.90;;;25.25;;
13244;SDS011;6689;53.400;12.486;2022-09-09T03:23:04;73.97;;;29.38;;
13244;SDS011;6689;53.400;12.486;2022-09-09T03:25:32;65.38;;;27.58;;
13244;SDS011;6689;53.400;12.486;2022-09-09T03:28:02;56.25;;;27.27;;
13244;SDS011;6689;53.400;12.486;2022-09-09T03:30:33;60.95;;;26.80;;
13244;SDS011;6689;53.400;12.486;2022-09-09T03:33:02;64.00;;;28.73;;
13244;SDS011;6689;53.400;12.486;2022-09-09T03:35:33;48.88;;;23.80;;
13244;SDS011;6689;53.400;12.486;2022-09-09T03:38:04;57.42;;;26.90;;
13244;SDS011;6689;53.400;12.486;2022-09-09T03:40:34;52.13;;;27.48;;
13244;SDS011;6689;53.400;12.486;2022-09-09T03:43:04;52.30;;;26.17;;
13244;SDS011;6689;53.400;12.486;2022-09-09T03:45:34;56.17;;;27.38;;
13244;SDS011;6689;53.400;12.486;2022-09-09T03:48:02;57.85;;;28.88;;
13244;SDS011;6689;53.400;12.486;2022-09-09T03:50:32;54.90;;;28.52;;
13244;SDS011;6689;53.400;12.486;2022-09-09T03:53:00;54.53;;;27.02;;
13244;SDS011;6689;53.400;12.486;2022-09-09T03:55:28;52.63;;;27.13;;
13244;SDS011;6689;53.400;12.486;2022-09-09T03:58:00;50.15;;;26.73;;
13244;SDS011;6689;53.400;12.486;2022-09-09T04:00:30;47.78;;;25.45;;
13244;SDS011;6689;53.400;12.486;2022-09-09T04:03:00;43.92;;;24.50;;
13244;SDS011;6689;53.400;12.486;2022-09-09T04:05:30;48.25;;;25.00;;
13244;SDS011;6689;53.400;12.486;2022-09-09T04:07:59;53.35;;;26.88;;
13244;SDS011;6689;53.400;12.486;2022-09-09T04:10:28;45.70;;;26.10;;
13244;SDS011;6689;53.400;12.486;2022-09-09T04:12:57;42.92;;;25.95;;
13244;SDS011;6689;53.400;12.486;2022-09-09T04:15:26;47.25;;;25.20;;
13244;SDS011;6689;53.400;12.486;2022-09-09T04:17:54;51.53;;;26.65;;
13244;SDS011;6689;53.400;12.486;2022-09-09T04:20:23;42.88;;;23.85;;
13244;SDS011;6689;53.400;12.486;2022-09-09T04:22:53;40.55;;;24.77;;
13244;SDS011;6689;53.400;12.486;2022-09-09T04:25:24;41.38;;;24.00;;
13244;SDS011;6689;53.400;12.486;2022-09-09T04:27:58;41.80;;;24.55;;
13244;SDS011;6689;53.400;12.486;2022-09-09T04:30:27;41.13;;;24.70;;
13244;SDS011;6689;53.400;12.486;2022-09-09T04:32:57;38.45;;;24.48;;
13244;SDS011;6689;53.400;12.486;2022-09-09T04:35:24;43.78;;;24.40;;
13244;SDS011;6689;53.400;12.486;2022-09-09T04:37:58;38.65;;;24.38;;
13244;SDS011;6689;53.400;12.486;2022-09-09T04:40:28;44.30;;;25.40;;
13244;SDS011;6689;53.400;12.486;2022-09-09T04:42:57;43.33;;;26.05;;
13244;SDS011;6689;53.400;12.486;2022-09-09T04:45:25;40.65;;;24.85;;
13244;SDS011;6689;53.400;12.486;2022-09-09T04:47:58;45.05;;;25.75;;
13244;SDS011;6689;53.400;12.486;2022-09-09T04:50:28;41.97;;;26.70;;
13244;SDS011;6689;53.400;12.486;2022-09-09T04:53:01;43.60;;;26.40;;
13244;SDS011;6689;53.400;12.486;2022-09-09T04:55:33;41.50;;;25.45;;
13244;SDS011;6689;53.400;12.486;2022-09-09T04:58:03;42.67;;;26.10;;
13244;SDS011;6689;53.400;12.486;2022-09-09T05:00:32;44.22;;;26.42;;
13244;SDS011;6689;53.400;12.486;2022-09-09T05:03:03;46.83;;;26.85;;
13244;SDS011;6689;53.400;12.486;2022-09-09T05:05:34;44.95;;;26.02;;
13244;SDS011;6689;53.400;12.486;2022-09-09T05:08:07;45.30;;;25.77;;
13244;SDS011;6689;53.400;12.486;2022-09-09T05:10:38;42.60;;;26.52;;
13244;SDS011;6689;53.400;12.486;2022-09-09T05:13:09;38.90;;;25.17;;
13244;SDS011;6689;53.400;12.486;2022-09-09T05:15:38;38.50;;;24.05;;
13244;SDS011;6689;53.400;12.486;2022-09-09T05:18:08;35.97;;;23.23;;
13244;SDS011;6689;53.400;12.486;2022-09-09T05:20:35;45.28;;;26.25;;
13244;SDS011;6689;53.400;12.486;2022-09-09T05:23:07;38.53;;;24.55;;
13244;SDS011;6689;53.400;12.486;2022-09-09T05:25:39;42.45;;;26.58;;
13244;SDS011;6689;53.400;12.486;2022-09-09T05:28:13;39.47;;;24.70;;
13244;SDS011;6689;53.400;12.486;2022-09-09T05:30:40;36.70;;;24.27;;
13244;SDS011;6689;53.400;12.486;2022-09-09T05:33:09;40.42;;;24.65;;
13244;SDS011;6689;53.400;12.486;2022-09-09T05:35:39;37.05;;;23.48;;
13244;SDS011;6689;53.400;12.486;2022-09-09T05:38:11;39.25;;;24.75;;
13244;SDS011;6689;53.400;12.486;2022-09-09T05:40:39;38.38;;;24.80;;
13244;SDS011;6689;53.400;12.486;2022-09-09T05:43:15;39.63;;;24.42;;
13244;SDS011;6689;53.400;12.486;2022-09-09T05:45:45;35.72;;;23.25;;
13244;SDS011;6689;53.400;12.486;2022-09-09T05:48:14;41.13;;;24.98;;
13244;SDS011;6689;53.400;12.486;2022-09-09T05:50:52;42.58;;;25.48;;
13244;SDS011;6689;53.400;12.486;2022-09-09T05:53:24;36.70;;;24.65;;
13244;SDS011;6689;53.400;12.486;2022-09-09T05:55:59;37.92;;;26.23;;
13244;SDS011;6689;53.400;12.486;2022-09-09T05:58:30;35.00;;;23.45;;
13244;SDS011;6689;53.400;12.486;2022-09-09T06:01:03;33.38;;;23.05;;
13244;SDS011;6689;53.400;12.486;2022-09-09T06:03:34;35.63;;;24.27;;
13244;SDS011;6689;53.400;12.486;2022-09-09T06:06:04;28.77;;;20.77;;
13244;SDS011;6689;53.400;12.486;2022-09-09T06:08:37;28.30;;;21.17;;
13244;SDS011;6689;53.400;12.486;2022-09-09T06:11:10;27.23;;;21.10;;
13244;SDS011;6689;53.400;12.486;2022-09-09T06:13:40;30.13;;;21.15;;
13244;SDS011;6689;53.400;12.486;2022-09-09T06:16:11;30.67;;;22.40;;
13244;SDS011;6689;53.400;12.486;2022-09-09T06:18:50;29.50;;;21.85;;
13244;SDS011;6689;53.400;12.486;2022-09-09T06:21:20;27.45;;;21.02;;
13244;SDS011;6689;53.400;12.486;2022-09-09T06:23:52;29.40;;;21.73;;
13244;SDS011;6689;53.400;12.486;2022-09-09T06:26:20;28.88;;;20.15;;
13244;SDS011;6689;53.400;12.486;2022-09-09T06:28:52;25.85;;;18.85;;
13244;SDS011;6689;53.400;12.486;2022-09-09T06:31:26;30.00;;;20.13;;
13244;SDS011;6689;53.400;12.486;2022-09-09T06:33:56;24.45;;;20.17;;
13244;SDS011;6689;53.400;12.486;2022-09-09T06:36:26;27.55;;;20.25;;
13244;SDS011;6689;53.400;12.486;2022-09-09T06:39:02;25.17;;;19.30;;
13244;SDS011;6689;53.400;12.486;2022-09-09T06:41:30;23.52;;;18.70;;
13244;SDS011;6689;53.400;12.486;2022-09-09T06:44:03;23.40;;;18.85;;
13244;SDS011;6689;53.400;12.486;2022-09-09T06:46:34;20.00;;;17.50;;
13244;SDS011;6689;53.400;12.486;2022-09-09T06:49:04;21.65;;;18.15;;
13244;SDS011;6689;53.400;12.486;2022-09-09T06:51:34;21.17;;;18.35;;
13244;SDS011;6689;53.400;12.486;2022-09-09T06:54:04;19.80;;;16.77;;
13244;SDS011;6689;53.400;12.486;2022-09-09T06:56:33;19.55;;;15.95;;
13244;SDS011;6689;53.400;12.486;2022-09-09T06:59:03;23.15;;;17.80;;
13244;SDS011;6689;53.400;12.486;2022-09-09T07:01:34;21.00;;;15.95;;
13244;SDS011;6689;53.400;12.486;2022-09-09T07:04:03;20.52;;;17.23;;
13244;SDS011;6689;53.400;12.486;2022-09-09T07:06:34;20.02;;;16.67;;
13244;SDS011;6689;53.400;12.486;2022-09-09T07:09:05;20.77;;;17.48;;
13244;SDS011;6689;53.400;12.486;2022-09-09T07:11:37;21.10;;;16.50;;
13244;SDS011;6689;53.400;12.486;2022-09-09T07:14:08;20.63;;;17.30;;
13244;SDS011;6689;53.400;12.486;2022-09-09T07:16:42;21.73;;;17.60;;
13244;SDS011;6689;53.400;12.486;2022-09-09T07:19:11;20.45;;;17.42;;
13244;SDS011;6689;53.400;12.486;2022-09-09T07:21:40;18.17;;;16.27;;
13244;SDS011;6689;53.400;12.486;2022-09-09T07:24:11;19.77;;;17.65;;
13244;SDS011;6689;53.400;12.486;2022-09-09T07:26:40;18.83;;;16.23;;
13244;SDS011;6689;53.400;12.486;2022-09-09T07:29:10;17.85;;;16.05;;
13244;SDS011;6689;53.400;12.486;2022-09-09T07:31:39;17.85;;;15.98;;
13244;SDS011;6689;53.400;12.486;2022-09-09T07:34:08;18.70;;;16.58;;
13244;SDS011;6689;53.400;12.486;2022-09-09T07:36:40;17.08;;;14.77;;
13244;SDS011;6689;53.400;12.486;2022-09-09T07:39:09;17.25;;;15.57;;
13244;SDS011;6689;53.400;12.486;2022-09-09T07:41:46;16.60;;;14.15;;
13244;SDS011;6689;53.400;12.486;2022-09-09T07:44:19;16.98;;;13.45;;
13244;SDS011;6689;53.400;12.486;2022-09-09T07:46:54;16.23;;;14.50;;
13244;SDS011;6689;53.400;12.486;2022-09-09T07:49:22;14.57;;;11.88;;
13244;SDS011;6689;53.400;12.486;2022-09-09T07:51:51;13.77;;;12.40;;
13244;SDS011;6689;53.400;12.486;2022-09-09T07:54:21;13.90;;;12.50;;
13244;SDS011;6689;53.400;12.486;2022-09-09T07:56:49;12.88;;;11.32;;
13244;SDS011;6689;53.400;12.486;2022-09-09T07:59:20;13.32;;;10.18;;
13244;SDS011;6689;53.400;12.486;2022-09-09T08:01:55;12.02;;;10.52;;
13244;SDS011;6689;53.400;12.486;2022-09-09T08:04:31;10.40;;;8.85;;
13244;SDS011;6689;53.400;12.486;2022-09-09T08:07:00;8.35;;;7.45;;
13244;SDS011;6689;53.400;12.486;2022-09-09T08:09:31;9.95;;;8.32;;
13244;SDS011;6689;53.400;12.486;2022-09-09T08:12:00;8.98;;;8.07;;
13244;SDS011;6689;53.400;12.486;2022-09-09T08:14:29;8.93;;;7.80;;
13244;SDS011;6689;53.400;12.486;2022-09-09T08:16:56;8.35;;;7.35;;
13244;SDS011;6689;53.400;12.486;2022-09-09T08:19:24;10.35;;;7.50;;
13244;SDS011;6689;53.400;12.486;2022-09-09T08:21:54;9.13;;;7.70;;
13244;SDS011;6689;53.400;12.486;2022-09-09T08:24:27;8.75;;;6.53;;
13244;SDS011;6689;53.400;12.486;2022-09-09T08:27:00;8.88;;;6.97;;
13244;SDS011;6689;53.400;12.486;2022-09-09T08:29:27;10.38;;;7.88;;
13244;SDS011;6689;53.400;12.486;2022-09-09T08:31:59;10.23;;;8.88;;
13244;SDS011;6689;53.400;12.486;2022-09-09T08:34:27;9.25;;;5.30;;
13244;SDS011;6689;53.400;12.486;2022-09-09T08:36:56;6.97;;;5.28;;
13244;SDS011;6689;53.400;12.486;2022-09-09T08:39:24;5.38;;;4.88;;
13244;SDS011;6689;53.400;12.486;2022-09-09T08:42:03;10.48;;;5.80;;
13244;SDS011;6689;53.400;12.486;2022-09-09T08:44:59;6.53;;;5.35;;
13244;SDS011;6689;53.400;12.486;2022-09-09T08:47:51;7.68;;;4.60;;
13244;SDS011;6689;53.400;12.486;2022-09-09T08:50:28;6.28;;;3.63;;
13244;SDS011;6689;53.400;12.486;2022-09-09T08:53:00;6.47;;;4.50;;
13244;SDS011;6689;53.400;12.486;2022-09-09T08:55:39;6.55;;;4.75;;
13244;SDS011;6689;53.400;12.486;2022-09-09T08:58:14;6.03;;;4.28;;
13244;SDS011;6689;53.400;12.486;2022-09-09T09:00:52;5.03;;;3.80;;
13244;SDS011;6689;53.400;12.486;2022-09-09T09:03:37;6.15;;;3.47;;
13244;SDS011;6689;53.400;12.486;2022-09-09T09:06:19;6.05;;;3.30;;
13244;SDS011;6689;53.400;12.486;2022-09-09T09:08:57;8.88;;;3.70;;
13244;SDS011;6689;53.400;12.486;2022-09-09T09:11:33;5.15;;;3.03;;
13244;SDS011;6689;53.400;12.486;2022-09-09T09:14:07;7.55;;;4.15;;
13244;SDS011;6689;53.400;12.486;2022-09-09T09:16:43;6.47;;;3.47;;
13244;SDS011;6689;53.400;12.486;2022-09-09T09:19:17;5.90;;;3.25;;
13244;SDS011;6689;53.400;12.486;2022-09-09T09:21:48;5.45;;;2.95;;
13244;SDS011;6689;53.400;12.486;2022-09-09T09:24:22;8.50;;;4.25;;
13244;SDS011;6689;53.400;12.486;2022-09-09T09:26:53;5.18;;;4.35;;
13244;SDS011;6689;53.400;12.486;2022-09-09T09:29:24;7.55;;;4.20;;
13244;SDS011;6689;53.400;12.486;2022-09-09T09:31:53;10.07;;;3.95;;
13244;SDS011;6689;53.400;12.486;2022-09-09T09:34:26;6.97;;;3.63;;
13244;SDS011;6689;53.400;12.486;2022-09-09T09:36:54;6.35;;;3.45;;
13244;SDS011;6689;53.400;12.486;2022-09-09T09:39:25;5.88;;;4.70;;
13244;SDS011;6689;53.400;12.486;2022-09-09T09:42:07;5.22;;;4.00;;
13244;SDS011;6689;53.400;12.486;2022-09-09T09:44:42;6.88;;;3.70;;
13244;SDS011;6689;53.400;12.486;2022-09-09T09:47:12;9.30;;;4.18;;
13244;SDS011;6689;53.400;12.486;2022-09-09T09:49:50;3.92;;;2.83;;
13244;SDS011;6689;53.400;12.486;2022-09-09T09:52:20;4.60;;;3.22;;
13244;SDS011;6689;53.400;12.486;2022-09-09T09:54:50;7.13;;;4.25;;
13244;SDS011;6689;53.400;12.486;2022-09-09T09:57:22;6.05;;;3.88;;
13244;SDS011;6689;53.400;12.486;2022-09-09T10:00:12;5.60;;;2.70;;
13244;SDS011;6689;53.400;12.486;2022-09-09T10:02:43;6.00;;;3.42;;
13244;SDS011;6689;53.400;12.486;2022-09-09T10:05:15;5.22;;;2.72;;
13244;SDS011;6689;53.400;12.486;2022-09-09T10:07:45;3.05;;;2.30;;
13244;SDS011;6689;53.400;12.486;2022-09-09T10:10:27;5.45;;;2.92;;
13244;SDS011;6689;53.400;12.486;2022-09-09T10:13:06;5.82;;;3.03;;
13244;SDS011;6689;53.400;12.486;2022-09-09T10:15:46;4.93;;;2.28;;
13244;SDS011;6689;53.400;12.486;2022-09-09T10:18:24;9.65;;;2.28;;
13244;SDS011;6689;53.400;12.486;2022-09-09T10:21:10;4.65;;;1.92;;
13244;SDS011;6689;53.400;12.486;2022-09-09T10:24:10;4.72;;;1.85;;
13244;SDS011;6689;53.400;12.486;2022-09-09T10:26:58;5.68;;;2.00;;
13244;SDS011;6689;53.400;12.486;2022-09-09T10:29:39;7.28;;;2.88;;
13244;SDS011;6689;53.400;12.486;2022-09-09T10:32:24;3.13;;;1.70;;
13244;SDS011;6689;53.400;12.486;2022-09-09T10:35:03;3.92;;;1.80;;
13244;SDS011;6689;53.400;12.486;2022-09-09T10:37:48;2.78;;;1.80;;
13244;SDS011;6689;53.400;12.486;2022-09-09T10:40:30;3.40;;;1.75;;
13244;SDS011;6689;53.400;12.486;2022-09-09T10:43:08;7.13;;;1.70;;
13244;SDS011;6689;53.400;12.486;2022-09-09T10:45:47;3.47;;;2.00;;
13244;SDS011;6689;53.400;12.486;2022-09-09T10:48:34;2.50;;;1.50;;
13244;SDS011;6689;53.400;12.486;2022-09-09T10:51:16;5.28;;;1.73;;
13244;SDS011;6689;53.400;12.486;2022-09-09T10:53:52;2.90;;;1.67;;
13244;SDS011;6689;53.400;12.486;2022-09-09T10:56:33;4.90;;;2.08;;
13244;SDS011;6689;53.400;12.486;2022-09-09T10:59:07;3.58;;;1.63;;
13244;SDS011;6689;53.400;12.486;2022-09-09T11:01:41;5.72;;;1.92;;
13244;SDS011;6689;53.400;12.486;2022-09-09T11:04:19;3.97;;;1.70;;
13244;SDS011;6689;53.400;12.486;2022-09-09T11:06:53;3.55;;;1.90;;
13244;SDS011;6689;53.400;12.486;2022-09-09T11:09:24;5.63;;;1.70;;
13244;SDS011;6689;53.400;12.486;2022-09-09T11:11:57;4.25;;;1.85;;
13244;SDS011;6689;53.400;12.486;2022-09-09T11:14:28;4.80;;;1.83;;
13244;SDS011;6689;53.400;12.486;2022-09-09T11:17:05;3.85;;;1.50;;
13244;SDS011;6689;53.400;12.486;2022-09-09T11:19:41;3.90;;;1.70;;
13244;SDS011;6689;53.400;12.486;2022-09-09T11:22:14;4.53;;;1.58;;
13244;SDS011;6689;53.400;12.486;2022-09-09T11:24:49;3.63;;;1.42;;
13244;SDS011;6689;53.400;12.486;2022-09-09T11:27:21;3.92;;;1.42;;
13244;SDS011;6689;53.400;12.486;2022-09-09T11:30:02;4.55;;;1.73;;
13244;SDS011;6689;53.400;12.486;2022-09-09T11:36:41;2.10;;;1.50;;
13244;SDS011;6689;53.400;12.486;2022-09-09T11:39:32;2.95;;;1.48;;
13244;SDS011;6689;53.400;12.486;2022-09-09T11:42:13;4.32;;;1.67;;
13244;SDS011;6689;53.400;12.486;2022-09-09T11:44:45;5.25;;;1.60;;
13244;SDS011;6689;53.400;12.486;2022-09-09T11:47:19;4.82;;;2.20;;
13244;SDS011;6689;53.400;12.486;2022-09-09T11:49:52;5.95;;;1.30;;
13244;SDS011;6689;53.400;12.486;2022-09-09T11:52:25;4.55;;;2.15;;
13244;SDS011;6689;53.400;12.486;2022-09-09T11:55:08;4.63;;;1.45;;
13244;SDS011;6689;53.400;12.486;2022-09-09T11:57:38;4.68;;;2.10;;
13244;SDS011;6689;53.400;12.486;2022-09-09T12:03:28;4.80;;;2.30;;
13244;SDS011;6689;53.400;12.486;2022-09-09T12:06:09;4.43;;;1.42;;
13244;SDS011;6689;53.400;12.486;2022-09-09T12:08:44;4.10;;;1.73;;
13244;SDS011;6689;53.400;12.486;2022-09-09T12:11:25;3.25;;;1.95;;
13244;SDS011;6689;53.400;12.486;2022-09-09T12:13:58;4.03;;;1.65;;
13244;SDS011;6689;53.400;12.486;2022-09-09T12:16:28;5.47;;;1.90;;
13244;SDS011;6689;53.400;12.486;2022-09-09T12:19:03;6.50;;;1.70;;
13244;SDS011;6689;53.400;12.486;2022-09-09T12:21:45;3.58;;;1.38;;
13244;SDS011;6689;53.400;12.486;2022-09-09T12:24:26;5.18;;;1.83;;
13244;SDS011;6689;53.400;12.486;2022-09-09T12:27:00;3.13;;;1.40;;
13244;SDS011;6689;53.400;12.486;2022-09-09T12:29:38;3.55;;;1.60;;
13244;SDS011;6689;53.400;12.486;2022-09-09T12:32:15;3.33;;;1.60;;
13244;SDS011;6689;53.400;12.486;2022-09-09T12:34:47;6.70;;;2.30;;
13244;SDS011;6689;53.400;12.486;2022-09-09T12:37:25;3.47;;;1.50;;
13244;SDS011;6689;53.400;12.486;2022-09-09T12:40:04;5.53;;;1.60;;
13244;SDS011;6689;53.400;12.486;2022-09-09T12:45:15;4.57;;;1.52;;
13244;SDS011;6689;53.400;12.486;2022-09-09T12:47:48;2.90;;;1.60;;
13244;SDS011;6689;53.400;12.486;2022-09-09T12:50:20;7.15;;;2.33;;
13244;SDS011;6689;53.400;12.486;2022-09-09T12:52:53;2.53;;;1.42;;
13244;SDS011;6689;53.400;12.486;2022-09-09T12:55:27;5.05;;;1.80;;
13244;SDS011;6689;53.400;12.486;2022-09-09T12:57:58;11.23;;;2.83;;
13244;SDS011;6689;53.400;12.486;2022-09-09T13:00:32;3.70;;;1.48;;
13244;SDS011;6689;53.400;12.486;2022-09-09T13:03:13;2.30;;;1.38;;
13244;SDS011;6689;53.400;12.486;2022-09-09T13:05:53;3.90;;;1.70;;
13244;SDS011;6689;53.400;12.486;2022-09-09T13:08:30;4.65;;;1.52;;
13244;SDS011;6689;53.400;12.486;2022-09-09T13:11:01;4.78;;;2.30;;
13244;SDS011;6689;53.400;12.486;2022-09-09T13:13:36;4.28;;;2.13;;
13244;SDS011;6689;53.400;12.486;2022-09-09T13:16:06;5.22;;;1.88;;
13244;SDS011;6689;53.400;12.486;2022-09-09T13:18:45;3.47;;;1.45;;
13244;SDS011;6689;53.400;12.486;2022-09-09T13:21:16;3.60;;;1.70;;
13244;SDS011;6689;53.400;12.486;2022-09-09T13:23:48;5.82;;;1.75;;
13244;SDS011;6689;53.400;12.486;2022-09-09T13:26:24;3.90;;;1.80;;
13244;SDS011;6689;53.400;12.486;2022-09-09T13:28:54;4.90;;;1.83;;
13244;SDS011;6689;53.400;12.486;2022-09-09T13:31:36;4.03;;;1.50;;
13244;SDS011;6689;53.400;12.486;2022-09-09T13:34:10;4.32;;;1.35;;
13244;SDS011;6689;53.400;12.486;2022-09-09T13:36:39;6.20;;;1.53;;
13244;SDS011;6689;53.400;12.486;2022-09-09T13:39:15;2.75;;;1.15;;
13244;SDS011;6689;53.400;12.486;2022-09-09T13:41:47;6.03;;;1.42;;
13244;SDS011;6689;53.400;12.486;2022-09-09T13:44:20;7.53;;;1.42;;
13244;SDS011;6689;53.400;12.486;2022-09-09T13:47:02;4.53;;;1.20;;
13244;SDS011;6689;53.400;12.486;2022-09-09T13:49:31;9.75;;;2.60;;
13244;SDS011;6689;53.400;12.486;2022-09-09T13:52:04;4.03;;;1.58;;
13244;SDS011;6689;53.400;12.486;2022-09-09T13:54:36;3.65;;;2.13;;
13244;SDS011;6689;53.400;12.486;2022-09-09T13:57:12;8.45;;;1.55;;
13244;SDS011;6689;53.400;12.486;2022-09-09T13:59:43;3.00;;;1.38;;
13244;SDS011;6689;53.400;12.486;2022-09-09T14:02:13;4.22;;;1.65;;
13244;SDS011;6689;53.400;12.486;2022-09-09T14:04:41;4.88;;;1.35;;
13244;SDS011;6689;53.400;12.486;2022-09-09T14:07:14;7.28;;;1.30;;
13244;SDS011;6689;53.400;12.486;2022-09-09T14:09:44;5.70;;;1.95;;
13244;SDS011;6689;53.400;12.486;2022-09-09T14:12:20;8.00;;;1.85;;
13244;SDS011;6689;53.400;12.486;2022-09-09T14:14:50;4.00;;;1.30;;
13244;SDS011;6689;53.400;12.486;2022-09-09T14:17:20;3.75;;;1.48;;
13244;SDS011;6689;53.400;12.486;2022-09-09T14:19:53;4.72;;;1.30;;
13244;SDS011;6689;53.400;12.486;2022-09-09T14:22:24;4.03;;;1.50;;
13244;SDS011;6689;53.400;12.486;2022-09-09T14:25:05;4.20;;;1.20;;
13244;SDS011;6689;53.400;12.486;2022-09-09T14:27:36;3.17;;;1.35;;
13244;SDS011;6689;53.400;12.486;2022-09-09T14:30:08;4.68;;;1.52;;
13244;SDS011;6689;53.400;12.486;2022-09-09T14:32:44;3.58;;;1.25;;
13244;SDS011;6689;53.400;12.486;2022-09-09T14:35:14;5.00;;;1.35;;
13244;SDS011;6689;53.400;12.486;2022-09-09T14:37:42;4.28;;;1.40;;
13244;SDS011;6689;53.400;12.486;2022-09-09T14:40:10;2.55;;;1.38;;
13244;SDS011;6689;53.400;12.486;2022-09-09T14:42:42;2.42;;;1.20;;
13244;SDS011;6689;53.400;12.486;2022-09-09T14:45:11;4.22;;;1.25;;
13244;SDS011;6689;53.400;12.486;2022-09-09T14:47:43;2.92;;;1.30;;
13244;SDS011;6689;53.400;12.486;2022-09-09T14:50:15;4.30;;;1.40;;
13244;SDS011;6689;53.400;12.486;2022-09-09T14:52:45;3.85;;;1.38;;
13244;SDS011;6689;53.400;12.486;2022-09-09T14:55:19;3.00;;;1.50;;
13244;SDS011;6689;53.400;12.486;2022-09-09T14:57:56;5.22;;;1.55;;
13244;SDS011;6689;53.400;12.486;2022-09-09T15:00:26;5.68;;;1.27;;
13244;SDS011;6689;53.400;12.486;2022-09-09T15:02:55;6.15;;;1.40;;
13244;SDS011;6689;53.400;12.486;2022-09-09T15:05:26;2.55;;;1.35;;
13244;SDS011;6689;53.400;12.486;2022-09-09T15:07:59;2.35;;;1.20;;
13244;SDS011;6689;53.400;12.486;2022-09-09T15:10:27;3.38;;;1.60;;
13244;SDS011;6689;53.400;12.486;2022-09-09T15:13:00;5.55;;;1.80;;
13244;SDS011;6689;53.400;12.486;2022-09-09T15:15:28;2.72;;;1.55;;
13244;SDS011;6689;53.400;12.486;2022-09-09T15:17:56;2.92;;;1.25;;
13244;SDS011;6689;53.400;12.486;2022-09-09T15:20:25;6.15;;;1.45;;
13244;SDS011;6689;53.400;12.486;2022-09-09T15:22:54;3.53;;;1.70;;
13244;SDS011;6689;53.400;12.486;2022-09-09T15:25:30;2.60;;;1.35;;